sensor_id;sensor_type;location;lat;lon;timestamp;temperature;humidity
64209;DHT22;50527;52.414;13.226;2023-12-04T00:00:24;-3.00;91.40
64209;DHT22;50527;52.414;13.226;2023-12-04T00:02:49;-2.90;91.40
64209;DHT22;50527;52.414;13.226;2023-12-04T00:05:15;-2.90;91.10
64209;DHT22;50527;52.414;13.226;2023-12-04T00:07:40;-2.90;90.90
64209;DHT22;50527;52.414;13.226;2023-12-04T00:10:06;-2.90;90.70
64209;DHT22;50527;52.414;13.226;2023-12-04T00:12:32;-3.00;90.80
64209;DHT22;50527;52.414;13.226;2023-12-04T00:14:57;-3.00;91.30
64209;DHT22;50527;52.414;13.226;2023-12-04T00:17:22;-3.00;90.90
64209;DHT22;50527;52.414;13.226;2023-12-04T00:19:48;-3.10;90.70
64209;DHT22;50527;52.414;13.226;2023-12-04T00:22:13;-3.10;91.30
64209;DHT22;50527;52.414;13.226;2023-12-04T00:24:39;-3.00;91.10
64209;DHT22;50527;52.414;13.226;2023-12-04T00:27:04;-2.90;90.90
64209;DHT22;50527;52.414;13.226;2023-12-04T00:29:30;-3.00;90.80
64209;DHT22;50527;52.414;13.226;2023-12-04T00:31:55;-3.00;90.80
64209;DHT22;50527;52.414;13.226;2023-12-04T00:34:22;-3.00;90.80
64209;DHT22;50527;52.414;13.226;2023-12-04T00:36:48;-3.10;90.60
64209;DHT22;50527;52.414;13.226;2023-12-04T00:39:13;-3.10;90.40
64209;DHT22;50527;52.414;13.226;2023-12-04T00:41:39;-3.10;91.30
64209;DHT22;50527;52.414;13.226;2023-12-04T00:44:04;-3.00;91.10
64209;DHT22;50527;52.414;13.226;2023-12-04T00:46:29;-3.10;90.90
64209;DHT22;50527;52.414;13.226;2023-12-04T00:48:55;-3.00;91.00
64209;DHT22;50527;52.414;13.226;2023-12-04T00:51:21;-2.90;90.90
64209;DHT22;50527;52.414;13.226;2023-12-04T00:53:46;-3.00;90.60
64209;DHT22;50527;52.414;13.226;2023-12-04T00:56:11;-3.00;90.80
64209;DHT22;50527;52.414;13.226;2023-12-04T00:58:37;-3.20;90.70
64209;DHT22;50527;52.414;13.226;2023-12-04T01:01:03;-3.30;90.90
64209;DHT22;50527;52.414;13.226;2023-12-04T01:03:28;-3.30;91.00
64209;DHT22;50527;52.414;13.226;2023-12-04T01:05:54;-3.30;91.40
64209;DHT22;50527;52.414;13.226;2023-12-04T01:08:19;-3.20;91.20
64209;DHT22;50527;52.414;13.226;2023-12-04T01:10:45;-3.20;91.00
64209;DHT22;50527;52.414;13.226;2023-12-04T01:13:10;-3.20;90.80
64209;DHT22;50527;52.414;13.226;2023-12-04T01:15:36;-3.30;91.00
64209;DHT22;50527;52.414;13.226;2023-12-04T01:18:02;-3.20;91.40
64209;DHT22;50527;52.414;13.226;2023-12-04T01:20:27;-3.20;91.20
64209;DHT22;50527;52.414;13.226;2023-12-04T01:22:53;-3.10;91.10
64209;DHT22;50527;52.414;13.226;2023-12-04T01:25:18;-3.20;90.50
64209;DHT22;50527;52.414;13.226;2023-12-04T01:27:44;-3.20;90.80
64209;DHT22;50527;52.414;13.226;2023-12-04T01:30:10;-3.30;91.20
64209;DHT22;50527;52.414;13.226;2023-12-04T01:32:36;-3.40;91.20
64209;DHT22;50527;52.414;13.226;2023-12-04T01:35:02;-3.30;91.50
64209;DHT22;50527;52.414;13.226;2023-12-04T01:37:27;-3.40;91.50
64209;DHT22;50527;52.414;13.226;2023-12-04T01:39:53;-3.30;91.50
64209;DHT22;50527;52.414;13.226;2023-12-04T01:42:18;-3.20;91.20
64209;DHT22;50527;52.414;13.226;2023-12-04T01:44:44;-3.40;90.90
64209;DHT22;50527;52.414;13.226;2023-12-04T01:47:10;-3.30;91.40
64209;DHT22;50527;52.414;13.226;2023-12-04T01:49:36;-3.30;91.10
64209;DHT22;50527;52.414;13.226;2023-12-04T01:52:02;-3.20;91.60
64209;DHT22;50527;52.414;13.226;2023-12-04T01:54:29;-3.10;91.50
64209;DHT22;50527;52.414;13.226;2023-12-04T01:56:55;-3.10;91.60
64209;DHT22;50527;52.414;13.226;2023-12-04T01:59:21;-3.00;91.50
64209;DHT22;50527;52.414;13.226;2023-12-04T02:01:47;-3.00;91.10
64209;DHT22;50527;52.414;13.226;2023-12-04T02:04:12;-3.00;91.60
64209;DHT22;50527;52.414;13.226;2023-12-04T02:06:40;-3.00;91.60
64209;DHT22;50527;52.414;13.226;2023-12-04T02:09:06;-3.00;91.70
64209;DHT22;50527;52.414;13.226;2023-12-04T02:11:32;-3.00;91.90
64209;DHT22;50527;52.414;13.226;2023-12-04T02:13:57;-3.00;91.90
64209;DHT22;50527;52.414;13.226;2023-12-04T02:16:25;-3.00;91.70
64209;DHT22;50527;52.414;13.226;2023-12-04T02:18:51;-2.90;91.80
64209;DHT22;50527;52.414;13.226;2023-12-04T02:21:17;-3.00;91.70
64209;DHT22;50527;52.414;13.226;2023-12-04T02:23:42;-3.00;91.90
64209;DHT22;50527;52.414;13.226;2023-12-04T02:26:16;-3.00;91.70
64209;DHT22;50527;52.414;13.226;2023-12-04T02:28:48;-3.00;91.60
64209;DHT22;50527;52.414;13.226;2023-12-04T02:31:16;-3.10;91.70
64209;DHT22;50527;52.414;13.226;2023-12-04T02:33:43;-3.00;91.80
64209;DHT22;50527;52.414;13.226;2023-12-04T02:36:10;-3.10;92.00
64209;DHT22;50527;52.414;13.226;2023-12-04T02:38:37;-3.10;91.70
64209;DHT22;50527;52.414;13.226;2023-12-04T02:41:03;-3.20;91.90
64209;DHT22;50527;52.414;13.226;2023-12-04T02:43:28;-3.10;92.10
64209;DHT22;50527;52.414;13.226;2023-12-04T02:45:54;-3.10;92.00
64209;DHT22;50527;52.414;13.226;2023-12-04T02:48:19;-3.10;91.80
64209;DHT22;50527;52.414;13.226;2023-12-04T02:50:45;-3.10;92.10
64209;DHT22;50527;52.414;13.226;2023-12-04T02:53:10;-3.00;91.90
64209;DHT22;50527;52.414;13.226;2023-12-04T02:55:35;-3.10;91.60
64209;DHT22;50527;52.414;13.226;2023-12-04T02:58:01;-3.20;91.70
64209;DHT22;50527;52.414;13.226;2023-12-04T03:00:26;-3.10;91.70
64209;DHT22;50527;52.414;13.226;2023-12-04T03:02:52;-3.10;91.90
64209;DHT22;50527;52.414;13.226;2023-12-04T03:05:19;-3.20;91.60
64209;DHT22;50527;52.414;13.226;2023-12-04T03:07:44;-3.20;92.10
64209;DHT22;50527;52.414;13.226;2023-12-04T03:10:11;-3.30;91.90
64209;DHT22;50527;52.414;13.226;2023-12-04T03:12:36;-3.40;92.10
64209;DHT22;50527;52.414;13.226;2023-12-04T03:15:02;-3.30;92.80
64209;DHT22;50527;52.414;13.226;2023-12-04T03:17:28;-3.30;92.60
64209;DHT22;50527;52.414;13.226;2023-12-04T03:19:53;-3.10;92.70
64209;DHT22;50527;52.414;13.226;2023-12-04T03:22:19;-3.00;92.20
64209;DHT22;50527;52.414;13.226;2023-12-04T03:24:44;-3.10;92.00
64209;DHT22;50527;52.414;13.226;2023-12-04T03:27:10;-3.00;92.40
64209;DHT22;50527;52.414;13.226;2023-12-04T03:29:36;-2.90;92.10
64209;DHT22;50527;52.414;13.226;2023-12-04T03:32:01;-2.90;92.30
64209;DHT22;50527;52.414;13.226;2023-12-04T03:34:27;-2.80;92.50
64209;DHT22;50527;52.414;13.226;2023-12-04T03:36:52;-2.80;92.90
64209;DHT22;50527;52.414;13.226;2023-12-04T03:39:18;-2.80;93.20
64209;DHT22;50527;52.414;13.226;2023-12-04T03:41:43;-2.90;93.00
64209;DHT22;50527;52.414;13.226;2023-12-04T03:44:10;-2.80;93.50
64209;DHT22;50527;52.414;13.226;2023-12-04T03:46:35;-2.90;93.50
64209;DHT22;50527;52.414;13.226;2023-12-04T03:49:01;-3.00;93.90
64209;DHT22;50527;52.414;13.226;2023-12-04T03:51:26;-3.00;93.90
64209;DHT22;50527;52.414;13.226;2023-12-04T03:53:52;-3.00;94.30
64209;DHT22;50527;52.414;13.226;2023-12-04T03:56:17;-2.90;94.40
64209;DHT22;50527;52.414;13.226;2023-12-04T03:58:43;-2.90;94.20
64209;DHT22;50527;52.414;13.226;2023-12-04T04:01:08;-2.90;94.40
64209;DHT22;50527;52.414;13.226;2023-12-04T04:03:34;-2.80;94.30
64209;DHT22;50527;52.414;13.226;2023-12-04T04:05:59;-2.90;94.20
64209;DHT22;50527;52.414;13.226;2023-12-04T04:08:25;-2.90;94.10
64209;DHT22;50527;52.414;13.226;2023-12-04T04:10:50;-2.90;94.30
64209;DHT22;50527;52.414;13.226;2023-12-04T04:13:15;-2.90;94.50
64209;DHT22;50527;52.414;13.226;2023-12-04T04:15:41;-2.90;94.90
64209;DHT22;50527;52.414;13.226;2023-12-04T04:18:07;-2.90;94.80
64209;DHT22;50527;52.414;13.226;2023-12-04T04:20:32;-2.90;94.90
64209;DHT22;50527;52.414;13.226;2023-12-04T04:22:58;-2.90;94.70
64209;DHT22;50527;52.414;13.226;2023-12-04T04:25:23;-2.90;94.70
64209;DHT22;50527;52.414;13.226;2023-12-04T04:27:49;-2.80;94.60
64209;DHT22;50527;52.414;13.226;2023-12-04T04:30:15;-2.80;94.60
64209;DHT22;50527;52.414;13.226;2023-12-04T04:32:41;-2.80;94.80
64209;DHT22;50527;52.414;13.226;2023-12-04T04:35:07;-2.80;94.70
64209;DHT22;50527;52.414;13.226;2023-12-04T04:37:33;-2.80;94.60
64209;DHT22;50527;52.414;13.226;2023-12-04T04:39:58;-2.80;94.40
64209;DHT22;50527;52.414;13.226;2023-12-04T04:42:23;-2.80;94.10
64209;DHT22;50527;52.414;13.226;2023-12-04T04:44:49;-2.80;94.50
64209;DHT22;50527;52.414;13.226;2023-12-04T04:47:14;-2.80;94.10
64209;DHT22;50527;52.414;13.226;2023-12-04T04:49:40;-2.80;94.50
64209;DHT22;50527;52.414;13.226;2023-12-04T04:52:07;-2.70;94.60
64209;DHT22;50527;52.414;13.226;2023-12-04T04:54:32;-2.70;94.40
64209;DHT22;50527;52.414;13.226;2023-12-04T04:56:58;-2.70;94.80
64209;DHT22;50527;52.414;13.226;2023-12-04T04:59:24;-2.70;94.90
64209;DHT22;50527;52.414;13.226;2023-12-04T05:01:49;-2.70;95.30
64209;DHT22;50527;52.414;13.226;2023-12-04T05:04:15;-2.70;95.70
64209;DHT22;50527;52.414;13.226;2023-12-04T05:06:40;-2.60;95.30
64209;DHT22;50527;52.414;13.226;2023-12-04T05:09:06;-2.70;95.20
64209;DHT22;50527;52.414;13.226;2023-12-04T05:11:31;-2.70;95.50
64209;DHT22;50527;52.414;13.226;2023-12-04T05:13:57;-2.70;95.70
64209;DHT22;50527;52.414;13.226;2023-12-04T05:16:22;-2.70;96.00
64209;DHT22;50527;52.414;13.226;2023-12-04T05:18:48;-2.60;96.00
64209;DHT22;50527;52.414;13.226;2023-12-04T05:21:13;-2.70;95.70
64209;DHT22;50527;52.414;13.226;2023-12-04T05:23:39;-2.70;95.80
64209;DHT22;50527;52.414;13.226;2023-12-04T05:26:05;-2.80;96.20
64209;DHT22;50527;52.414;13.226;2023-12-04T05:28:31;-2.90;96.40
64209;DHT22;50527;52.414;13.226;2023-12-04T05:30:57;-2.90;96.40
64209;DHT22;50527;52.414;13.226;2023-12-04T05:33:22;-3.00;96.50
64209;DHT22;50527;52.414;13.226;2023-12-04T05:35:48;-2.90;96.70
64209;DHT22;50527;52.414;13.226;2023-12-04T05:38:16;-2.90;96.70
64209;DHT22;50527;52.414;13.226;2023-12-04T05:40:41;-2.90;96.70
64209;DHT22;50527;52.414;13.226;2023-12-04T05:43:07;-2.90;96.90
64209;DHT22;50527;52.414;13.226;2023-12-04T05:45:32;-2.80;96.50
64209;DHT22;50527;52.414;13.226;2023-12-04T05:47:58;-2.80;96.30
64209;DHT22;50527;52.414;13.226;2023-12-04T05:50:23;-2.80;96.30
64209;DHT22;50527;52.414;13.226;2023-12-04T05:52:50;-2.80;96.30
64209;DHT22;50527;52.414;13.226;2023-12-04T05:55:16;-2.70;96.30
64209;DHT22;50527;52.414;13.226;2023-12-04T05:57:41;-2.80;96.30
64209;DHT22;50527;52.414;13.226;2023-12-04T06:00:07;-2.80;96.30
64209;DHT22;50527;52.414;13.226;2023-12-04T06:02:39;-2.80;96.90
64209;DHT22;50527;52.414;13.226;2023-12-04T06:05:06;-2.80;96.50
64209;DHT22;50527;52.414;13.226;2023-12-04T06:07:31;-2.80;96.60
64209;DHT22;50527;52.414;13.226;2023-12-04T06:09:57;-2.80;96.70
64209;DHT22;50527;52.414;13.226;2023-12-04T06:12:22;-2.80;96.80
64209;DHT22;50527;52.414;13.226;2023-12-04T06:14:48;-2.80;96.70
64209;DHT22;50527;52.414;13.226;2023-12-04T06:17:13;-2.80;96.90
64209;DHT22;50527;52.414;13.226;2023-12-04T06:19:39;-2.80;97.10
64209;DHT22;50527;52.414;13.226;2023-12-04T06:22:05;-2.80;96.80
64209;DHT22;50527;52.414;13.226;2023-12-04T06:24:30;-2.80;97.00
64209;DHT22;50527;52.414;13.226;2023-12-04T06:26:56;-2.80;96.90
64209;DHT22;50527;52.414;13.226;2023-12-04T06:29:23;-2.70;97.30
64209;DHT22;50527;52.414;13.226;2023-12-04T06:31:48;-2.70;97.10
64209;DHT22;50527;52.414;13.226;2023-12-04T06:34:14;-2.70;97.20
64209;DHT22;50527;52.414;13.226;2023-12-04T06:36:40;-2.60;97.10
64209;DHT22;50527;52.414;13.226;2023-12-04T06:39:10;-2.60;97.00
64209;DHT22;50527;52.414;13.226;2023-12-04T06:41:37;-2.50;97.30
64209;DHT22;50527;52.414;13.226;2023-12-04T06:44:02;-2.40;97.10
64209;DHT22;50527;52.414;13.226;2023-12-04T06:46:30;-2.30;96.80
64209;DHT22;50527;52.414;13.226;2023-12-04T06:48:57;-2.30;96.40
64209;DHT22;50527;52.414;13.226;2023-12-04T06:51:24;-2.20;96.70
64209;DHT22;50527;52.414;13.226;2023-12-04T06:53:50;-2.10;96.20
64209;DHT22;50527;52.414;13.226;2023-12-04T06:56:16;-2.20;96.40
64209;DHT22;50527;52.414;13.226;2023-12-04T06:58:41;-2.10;96.70
64209;DHT22;50527;52.414;13.226;2023-12-04T07:01:07;-2.00;96.50
64209;DHT22;50527;52.414;13.226;2023-12-04T07:03:32;-2.00;96.80
64209;DHT22;50527;52.414;13.226;2023-12-04T07:05:58;-2.10;96.50
64209;DHT22;50527;52.414;13.226;2023-12-04T07:08:24;-2.00;96.60
64209;DHT22;50527;52.414;13.226;2023-12-04T07:10:49;-2.10;96.60
64209;DHT22;50527;52.414;13.226;2023-12-04T07:13:15;-2.10;96.80
64209;DHT22;50527;52.414;13.226;2023-12-04T07:15:41;-2.00;96.90
64209;DHT22;50527;52.414;13.226;2023-12-04T07:18:06;-2.00;96.50
64209;DHT22;50527;52.414;13.226;2023-12-04T07:20:32;-2.00;96.90
64209;DHT22;50527;52.414;13.226;2023-12-04T07:22:57;-1.90;96.90
64209;DHT22;50527;52.414;13.226;2023-12-04T07:25:23;-1.90;96.70
64209;DHT22;50527;52.414;13.226;2023-12-04T07:27:49;-1.90;96.60
64209;DHT22;50527;52.414;13.226;2023-12-04T07:30:15;-1.80;96.70
64209;DHT22;50527;52.414;13.226;2023-12-04T07:32:40;-1.80;96.50
64209;DHT22;50527;52.414;13.226;2023-12-04T07:35:06;-1.80;96.40
64209;DHT22;50527;52.414;13.226;2023-12-04T07:37:32;-1.80;96.50
64209;DHT22;50527;52.414;13.226;2023-12-04T07:39:57;-1.60;96.60
64209;DHT22;50527;52.414;13.226;2023-12-04T07:42:23;-1.60;96.50
64209;DHT22;50527;52.414;13.226;2023-12-04T07:44:49;-1.50;96.30
64209;DHT22;50527;52.414;13.226;2023-12-04T07:47:14;-1.60;95.80
64209;DHT22;50527;52.414;13.226;2023-12-04T07:49:41;-1.70;96.10
64209;DHT22;50527;52.414;13.226;2023-12-04T07:52:07;-1.50;96.50
64209;DHT22;50527;52.414;13.226;2023-12-04T07:54:33;-1.50;96.10
64209;DHT22;50527;52.414;13.226;2023-12-04T07:56:58;-1.40;96.20
64209;DHT22;50527;52.414;13.226;2023-12-04T07:59:24;-1.30;96.10
64209;DHT22;50527;52.414;13.226;2023-12-04T08:01:49;-1.40;95.60
64209;DHT22;50527;52.414;13.226;2023-12-04T08:04:15;-1.30;95.40
64209;DHT22;50527;52.414;13.226;2023-12-04T08:06:41;-1.30;95.90
64209;DHT22;50527;52.414;13.226;2023-12-04T08:09:06;-1.20;95.80
64209;DHT22;50527;52.414;13.226;2023-12-04T08:11:35;-1.10;95.60
64209;DHT22;50527;52.414;13.226;2023-12-04T08:14:01;-1.10;95.40
64209;DHT22;50527;52.414;13.226;2023-12-04T08:16:27;-1.10;95.40
64209;DHT22;50527;52.414;13.226;2023-12-04T08:18:54;-1.10;95.30
64209;DHT22;50527;52.414;13.226;2023-12-04T08:21:19;-1.10;95.70
64209;DHT22;50527;52.414;13.226;2023-12-04T08:23:45;-1.00;95.50
64209;DHT22;50527;52.414;13.226;2023-12-04T08:26:11;-1.00;95.30
64209;DHT22;50527;52.414;13.226;2023-12-04T08:28:36;-1.00;95.20
64209;DHT22;50527;52.414;13.226;2023-12-04T08:31:07;-0.90;95.60
64209;DHT22;50527;52.414;13.226;2023-12-04T08:33:33;-1.00;95.10
64209;DHT22;50527;52.414;13.226;2023-12-04T08:36:00;-1.10;95.10
64209;DHT22;50527;52.414;13.226;2023-12-04T08:38:25;-1.00;95.90
64209;DHT22;50527;52.414;13.226;2023-12-04T08:40:51;-1.10;95.00
64209;DHT22;50527;52.414;13.226;2023-12-04T08:43:16;-1.00;95.60
64209;DHT22;50527;52.414;13.226;2023-12-04T08:45:42;-0.90;95.80
64209;DHT22;50527;52.414;13.226;2023-12-04T08:48:07;-1.10;95.40
64209;DHT22;50527;52.414;13.226;2023-12-04T08:50:34;-1.10;96.20
64209;DHT22;50527;52.414;13.226;2023-12-04T08:52:59;-1.00;96.30
64209;DHT22;50527;52.414;13.226;2023-12-04T08:55:25;-0.90;95.90
64209;DHT22;50527;52.414;13.226;2023-12-04T08:57:50;-1.00;95.50
64209;DHT22;50527;52.414;13.226;2023-12-04T09:00:16;-1.00;96.10
64209;DHT22;50527;52.414;13.226;2023-12-04T09:02:41;-0.90;95.90
64209;DHT22;50527;52.414;13.226;2023-12-04T09:05:07;-0.90;95.70
64209;DHT22;50527;52.414;13.226;2023-12-04T09:07:32;-0.80;95.80
64209;DHT22;50527;52.414;13.226;2023-12-04T09:10:00;-0.70;96.10
64209;DHT22;50527;52.414;13.226;2023-12-04T09:12:26;-0.80;96.10
64209;DHT22;50527;52.414;13.226;2023-12-04T09:14:52;-0.60;96.10
64209;DHT22;50527;52.414;13.226;2023-12-04T09:17:17;-0.70;95.80
64209;DHT22;50527;52.414;13.226;2023-12-04T09:19:43;-0.60;95.70
64209;DHT22;50527;52.414;13.226;2023-12-04T09:22:08;-0.50;95.70
64209;DHT22;50527;52.414;13.226;2023-12-04T09:24:34;-0.50;95.10
64209;DHT22;50527;52.414;13.226;2023-12-04T09:26:59;-0.60;95.00
64209;DHT22;50527;52.414;13.226;2023-12-04T09:29:25;-0.50;95.10
64209;DHT22;50527;52.414;13.226;2023-12-04T09:31:53;-0.60;95.30
64209;DHT22;50527;52.414;13.226;2023-12-04T09:34:19;-0.50;96.00
64209;DHT22;50527;52.414;13.226;2023-12-04T09:36:46;-0.50;95.80
64209;DHT22;50527;52.414;13.226;2023-12-04T09:39:12;-0.50;95.50
64209;DHT22;50527;52.414;13.226;2023-12-04T09:41:38;-0.40;95.90
64209;DHT22;50527;52.414;13.226;2023-12-04T09:44:05;-0.40;95.30
64209;DHT22;50527;52.414;13.226;2023-12-04T09:46:31;-0.50;94.90
64209;DHT22;50527;52.414;13.226;2023-12-04T09:48:57;-0.40;95.40
64209;DHT22;50527;52.414;13.226;2023-12-04T09:51:23;-0.40;95.50
64209;DHT22;50527;52.414;13.226;2023-12-04T09:53:51;-0.30;95.80
64209;DHT22;50527;52.414;13.226;2023-12-04T09:56:18;-0.30;94.80
64209;DHT22;50527;52.414;13.226;2023-12-04T09:58:44;-0.30;94.30
64209;DHT22;50527;52.414;13.226;2023-12-04T10:01:11;-0.30;94.80
64209;DHT22;50527;52.414;13.226;2023-12-04T10:03:37;-0.20;95.20
64209;DHT22;50527;52.414;13.226;2023-12-04T10:06:04;-0.20;94.20
64209;DHT22;50527;52.414;13.226;2023-12-04T10:08:30;-0.30;94.30
64209;DHT22;50527;52.414;13.226;2023-12-04T10:10:55;-0.40;94.40
64209;DHT22;50527;52.414;13.226;2023-12-04T10:13:21;-0.20;94.80
64209;DHT22;50527;52.414;13.226;2023-12-04T10:15:48;-0.10;95.10
64209;DHT22;50527;52.414;13.226;2023-12-04T10:18:32;-0.10;94.00
64209;DHT22;50527;52.414;13.226;2023-12-04T10:20:58;-0.10;93.70
64209;DHT22;50527;52.414;13.226;2023-12-04T10:23:41;-0.10;94.40
64209;DHT22;50527;52.414;13.226;2023-12-04T10:26:07;0.00;94.10
64209;DHT22;50527;52.414;13.226;2023-12-04T10:28:33;0.00;94.00
64209;DHT22;50527;52.414;13.226;2023-12-04T10:30:59;0.00;93.70
64209;DHT22;50527;52.414;13.226;2023-12-04T10:33:25;0.10;93.90
64209;DHT22;50527;52.414;13.226;2023-12-04T10:35:52;0.00;93.90
64209;DHT22;50527;52.414;13.226;2023-12-04T10:38:18;0.10;93.80
64209;DHT22;50527;52.414;13.226;2023-12-04T10:40:44;0.00;93.10
64209;DHT22;50527;52.414;13.226;2023-12-04T10:45:43;0.20;93.30
64209;DHT22;50527;52.414;13.226;2023-12-04T10:48:09;0.10;93.10
64209;DHT22;50527;52.414;13.226;2023-12-04T10:50:39;0.10;93.40
64209;DHT22;50527;52.414;13.226;2023-12-04T10:53:09;0.10;93.90
64209;DHT22;50527;52.414;13.226;2023-12-04T10:55:36;0.10;92.70
64209;DHT22;50527;52.414;13.226;2023-12-04T10:58:05;0.20;93.60
64209;DHT22;50527;52.414;13.226;2023-12-04T11:00:33;0.20;93.10
64209;DHT22;50527;52.414;13.226;2023-12-04T11:03:05;0.20;93.00
64209;DHT22;50527;52.414;13.226;2023-12-04T11:05:36;0.20;92.90
64209;DHT22;50527;52.414;13.226;2023-12-04T11:08:02;0.20;93.10
64209;DHT22;50527;52.414;13.226;2023-12-04T11:10:31;0.10;92.90
64209;DHT22;50527;52.414;13.226;2023-12-04T11:13:02;0.10;93.20
64209;DHT22;50527;52.414;13.226;2023-12-04T11:15:31;0.10;93.10
64209;DHT22;50527;52.414;13.226;2023-12-04T11:18:00;0.10;93.20
64209;DHT22;50527;52.414;13.226;2023-12-04T11:20:29;0.20;93.70
64209;DHT22;50527;52.414;13.226;2023-12-04T11:22:56;0.20;94.00
64209;DHT22;50527;52.414;13.226;2023-12-04T11:25:23;0.00;93.50
64209;DHT22;50527;52.414;13.226;2023-12-04T11:27:53;0.10;94.10
64209;DHT22;50527;52.414;13.226;2023-12-04T11:30:19;0.20;94.20
64209;DHT22;50527;52.414;13.226;2023-12-04T11:32:46;0.20;93.70
64209;DHT22;50527;52.414;13.226;2023-12-04T11:35:15;0.20;93.70
64209;DHT22;50527;52.414;13.226;2023-12-04T11:37:43;0.30;93.20
64209;DHT22;50527;52.414;13.226;2023-12-04T11:40:14;0.30;93.40
64209;DHT22;50527;52.414;13.226;2023-12-04T11:42:41;0.30;93.10
64209;DHT22;50527;52.414;13.226;2023-12-04T11:45:07;0.50;93.80
64209;DHT22;50527;52.414;13.226;2023-12-04T11:47:52;0.50;94.00
64209;DHT22;50527;52.414;13.226;2023-12-04T11:50:19;0.60;93.20
64209;DHT22;50527;52.414;13.226;2023-12-04T11:52:45;0.60;92.80
64209;DHT22;50527;52.414;13.226;2023-12-04T11:55:12;0.70;92.80
64209;DHT22;50527;52.414;13.226;2023-12-04T11:57:40;0.80;93.30
64209;DHT22;50527;52.414;13.226;2023-12-04T12:00:12;0.60;92.40
64209;DHT22;50527;52.414;13.226;2023-12-04T12:02:40;0.60;92.70
64209;DHT22;50527;52.414;13.226;2023-12-04T12:05:06;0.60;92.90
64209;DHT22;50527;52.414;13.226;2023-12-04T12:07:33;0.70;93.20
64209;DHT22;50527;52.414;13.226;2023-12-04T12:09:59;0.90;93.40
64209;DHT22;50527;52.414;13.226;2023-12-04T12:12:26;0.90;92.80
64209;DHT22;50527;52.414;13.226;2023-12-04T12:14:52;0.80;93.10
64209;DHT22;50527;52.414;13.226;2023-12-04T12:17:17;0.90;92.60
64209;DHT22;50527;52.414;13.226;2023-12-04T12:19:43;0.90;92.30
64209;DHT22;50527;52.414;13.226;2023-12-04T12:22:09;0.90;92.60
64209;DHT22;50527;52.414;13.226;2023-12-04T12:24:34;0.90;92.90
64209;DHT22;50527;52.414;13.226;2023-12-04T12:27:00;1.00;92.40
64209;DHT22;50527;52.414;13.226;2023-12-04T12:29:27;1.10;93.10
64209;DHT22;50527;52.414;13.226;2023-12-04T12:31:53;1.00;92.70
64209;DHT22;50527;52.414;13.226;2023-12-04T12:34:18;0.90;92.20
64209;DHT22;50527;52.414;13.226;2023-12-04T12:36:44;0.90;92.20
64209;DHT22;50527;52.414;13.226;2023-12-04T12:39:09;0.70;91.90
64209;DHT22;50527;52.414;13.226;2023-12-04T12:41:35;0.80;92.80
64209;DHT22;50527;52.414;13.226;2023-12-04T12:44:01;0.80;92.50
64209;DHT22;50527;52.414;13.226;2023-12-04T12:46:27;0.70;93.30
64209;DHT22;50527;52.414;13.226;2023-12-04T12:48:53;0.70;93.40
64209;DHT22;50527;52.414;13.226;2023-12-04T12:51:18;0.70;93.30
64209;DHT22;50527;52.414;13.226;2023-12-04T12:53:44;0.80;93.70
64209;DHT22;50527;52.414;13.226;2023-12-04T12:56:10;0.70;93.50
64209;DHT22;50527;52.414;13.226;2023-12-04T12:58:36;0.60;93.00
64209;DHT22;50527;52.414;13.226;2023-12-04T13:01:01;0.70;93.40
64209;DHT22;50527;52.414;13.226;2023-12-04T13:03:28;0.80;93.90
64209;DHT22;50527;52.414;13.226;2023-12-04T13:05:55;0.70;93.80
64209;DHT22;50527;52.414;13.226;2023-12-04T13:08:20;0.70;93.40
64209;DHT22;50527;52.414;13.226;2023-12-04T13:10:46;0.70;93.70
64209;DHT22;50527;52.414;13.226;2023-12-04T13:13:13;0.70;94.40
64209;DHT22;50527;52.414;13.226;2023-12-04T13:15:38;0.70;94.00
64209;DHT22;50527;52.414;13.226;2023-12-04T13:18:04;0.80;94.00
64209;DHT22;50527;52.414;13.226;2023-12-04T13:20:29;0.80;94.10
64209;DHT22;50527;52.414;13.226;2023-12-04T13:22:55;0.90;94.10
64209;DHT22;50527;52.414;13.226;2023-12-04T13:25:21;0.70;93.50
64209;DHT22;50527;52.414;13.226;2023-12-04T13:27:48;0.70;93.80
64209;DHT22;50527;52.414;13.226;2023-12-04T13:30:14;0.70;94.30
64209;DHT22;50527;52.414;13.226;2023-12-04T13:32:39;0.90;94.60
64209;DHT22;50527;52.414;13.226;2023-12-04T13:35:05;0.80;93.50
64209;DHT22;50527;52.414;13.226;2023-12-04T13:37:32;0.70;94.10
64209;DHT22;50527;52.414;13.226;2023-12-04T13:39:58;0.70;94.20
64209;DHT22;50527;52.414;13.226;2023-12-04T13:42:28;0.70;94.50
64209;DHT22;50527;52.414;13.226;2023-12-04T13:45:12;0.80;94.50
64209;DHT22;50527;52.414;13.226;2023-12-04T13:47:38;0.80;94.80
64209;DHT22;50527;52.414;13.226;2023-12-04T13:50:06;0.90;95.00
64209;DHT22;50527;52.414;13.226;2023-12-04T13:52:34;0.80;94.50
64209;DHT22;50527;52.414;13.226;2023-12-04T13:55:00;0.80;94.80
64209;DHT22;50527;52.414;13.226;2023-12-04T13:57:25;0.80;94.90
64209;DHT22;50527;52.414;13.226;2023-12-04T13:59:59;0.80;94.60
64209;DHT22;50527;52.414;13.226;2023-12-04T14:02:25;0.70;94.50
64209;DHT22;50527;52.414;13.226;2023-12-04T14:04:50;0.60;95.00
64209;DHT22;50527;52.414;13.226;2023-12-04T14:07:16;0.60;94.90
64209;DHT22;50527;52.414;13.226;2023-12-04T14:09:43;0.50;94.60
64209;DHT22;50527;52.414;13.226;2023-12-04T14:12:10;0.40;95.00
64209;DHT22;50527;52.414;13.226;2023-12-04T14:14:36;0.40;95.60
64209;DHT22;50527;52.414;13.226;2023-12-04T14:17:03;0.40;95.70
64209;DHT22;50527;52.414;13.226;2023-12-04T14:19:29;0.40;95.50
64209;DHT22;50527;52.414;13.226;2023-12-04T14:21:55;0.40;95.50
64209;DHT22;50527;52.414;13.226;2023-12-04T14:24:20;0.40;95.80
64209;DHT22;50527;52.414;13.226;2023-12-04T14:26:47;0.50;96.40
64209;DHT22;50527;52.414;13.226;2023-12-04T14:29:13;0.40;96.10
64209;DHT22;50527;52.414;13.226;2023-12-04T14:31:38;0.40;96.20
64209;DHT22;50527;52.414;13.226;2023-12-04T14:34:04;0.40;96.20
64209;DHT22;50527;52.414;13.226;2023-12-04T14:36:29;0.40;96.10
64209;DHT22;50527;52.414;13.226;2023-12-04T14:38:58;0.40;96.40
64209;DHT22;50527;52.414;13.226;2023-12-04T14:41:24;0.50;96.20
64209;DHT22;50527;52.414;13.226;2023-12-04T14:43:50;0.50;95.90
64209;DHT22;50527;52.414;13.226;2023-12-04T14:46:16;0.50;96.00
64209;DHT22;50527;52.414;13.226;2023-12-04T14:48:42;0.50;95.70
64209;DHT22;50527;52.414;13.226;2023-12-04T14:51:08;0.50;95.90
64209;DHT22;50527;52.414;13.226;2023-12-04T14:53:40;0.50;96.00
64209;DHT22;50527;52.414;13.226;2023-12-04T14:56:12;0.50;96.20
64209;DHT22;50527;52.414;13.226;2023-12-04T14:58:56;0.50;96.40
64209;DHT22;50527;52.414;13.226;2023-12-04T15:01:44;0.50;96.70
64209;DHT22;50527;52.414;13.226;2023-12-04T15:04:28;0.60;96.10
64209;DHT22;50527;52.414;13.226;2023-12-04T15:07:00;0.50;95.80
64209;DHT22;50527;52.414;13.226;2023-12-04T15:09:44;0.50;96.50
64209;DHT22;50527;52.414;13.226;2023-12-04T15:12:28;0.50;96.20
64209;DHT22;50527;52.414;13.226;2023-12-04T15:15:16;0.50;95.40
64209;DHT22;50527;52.414;13.226;2023-12-04T15:18:05;0.60;95.60